Strona główna
METAR-TAF:

METAR-TAF

Lotnisko :

South Jersey Regional Airport

Mount Holly, New Jersey, Stany Zjednoczone

Szerokość geograficzna: 39-56-26N, Długość geograficzna: 074-50-28W, wysokość: 16 m

Aktualna obserwacja pogody

Raport powstał 34 minut temu, godzina 10:54 UTC
Cisza
Temperatura 21°C
Wilgotność 100%
Ciśnienie 1014 hPa
Widzialność: 2.4 km
Zachmurzenie całkowite na wysokości 300 ft
zamglenie

METAR: KVAY 181054Z AUTO 00000KT 1 1/2SM BR OVC003 21/21 A2995 RMK AO2 RAB34E46 SLP141 P0002 T02110206 $

czas: 07:28 (11:28 UTC)


TAF: brakujący

Obserwacja i prognoza pogody dla ponad 4000 lotnisk (raport METAR i TAF).

Dostępne stacje oznaczono żółtymi i czerwonymi punktami na mapie.

Najedź kursorem aby zobaczyć nazwę stacji.

Kliknij aby zobaczyć obserwacje i prognozy pogody.

Aby zmienić mapę: kliknij na zielony przycisk z czarnym krzyżykiem, aby powiększyć; na zielony przycisk z myślnikiem, aby pomniejszyć; na zielone strzałki, aby przejść do map sąsiednich.


METAR-TAF: